NKS954 KLAS-KFLL
Flight info
| Callsign | NKS954 |
|---|---|
| Flight time | N/A |
| Altitude | 35000 |
| Route | NIITZ4 SSKEE GUP TXO CIYAL MQP ARDIA LFK ZIROR/N0452F370 LEV Y290 DOWRY TEEKY4 |
| Aircraft | A320/M-SDFGHILRWXYZ/LB1 |
Departure
| Time | 2026-05-08 08:05 |
|---|---|
| Airport | Harry Reid International Airport (KLAS) |
Arrival
| Time | N/A |
|---|---|
| Airport | Fort Lauderdale Hollywood International Airport (KFLL) |
| Time | Latitude | Longitude | Altitude | Speed | Heading |
|---|---|---|---|---|---|
| 2026-05-08 07:45 | 36.08507 | -115.15476 | 2098 ft | 0 kts | 56° |
| 2026-05-08 07:48 | 36.08506 | -115.15479 | 2098 ft | 3 kts | 56° |
| 2026-05-08 07:48 | 36.08491 | -115.15506 | 2098 ft | 4 kts | 56° |
| 2026-05-08 07:49 | 36.08479 | -115.15528 | 2098 ft | 4 kts | 56° |
| 2026-05-08 07:49 | 36.08467 | -115.15549 | 2099 ft | 4 kts | 56° |
| 2026-05-08 07:49 | 36.08460 | -115.15563 | 2099 ft | 0 kts | 56° |
| 2026-05-08 07:53 | 36.08459 | -115.15559 | 2099 ft | 0 kts | 79° |
| 2026-05-08 07:53 | 36.08454 | -115.15557 | 2099 ft | 1 kts | 144° |
| 2026-05-08 07:53 | 36.08424 | -115.15546 | 2099 ft | 8 kts | 161° |
| 2026-05-08 07:53 | 36.08369 | -115.15518 | 2098 ft | 10 kts | 155° |
| 2026-05-08 07:54 | 36.08304 | -115.15480 | 2098 ft | 11 kts | 155° |
| 2026-05-08 07:54 | 36.08233 | -115.15440 | 2097 ft | 11 kts | 154° |
| 2026-05-08 07:54 | 36.08163 | -115.15398 | 2097 ft | 10 kts | 156° |
| 2026-05-08 07:54 | 36.08116 | -115.15335 | 2097 ft | 11 kts | 109° |
| 2026-05-08 07:55 | 36.08097 | -115.15242 | 2097 ft | 11 kts | 104° |
| 2026-05-08 07:55 | 36.08033 | -115.15204 | 2097 ft | 11 kts | 179° |
| 2026-05-08 07:55 | 36.07952 | -115.15202 | 2098 ft | 11 kts | 179° |
| 2026-05-08 07:55 | 36.07885 | -115.15182 | 2099 ft | 10 kts | 129° |
| 2026-05-08 07:56 | 36.07877 | -115.15093 | 2098 ft | 12 kts | 92° |
| 2026-05-08 07:56 | 36.07868 | -115.14955 | 2098 ft | 17 kts | 94° |
| 2026-05-08 07:56 | 36.07858 | -115.14803 | 2097 ft | 19 kts | 95° |
| 2026-05-08 07:56 | 36.07847 | -115.14638 | 2096 ft | 20 kts | 95° |
| 2026-05-08 07:57 | 36.07835 | -115.14462 | 2096 ft | 21 kts | 94° |
| 2026-05-08 07:57 | 36.07827 | -115.14281 | 2095 ft | 22 kts | 90° |
| 2026-05-08 07:57 | 36.07827 | -115.14088 | 2094 ft | 23 kts | 90° |
| 2026-05-08 07:57 | 36.07827 | -115.13886 | 2093 ft | 24 kts | 90° |
| 2026-05-08 07:58 | 36.07827 | -115.13682 | 2092 ft | 24 kts | 90° |
| 2026-05-08 07:58 | 36.07827 | -115.13471 | 2091 ft | 25 kts | 90° |
| 2026-05-08 07:58 | 36.07827 | -115.13258 | 2087 ft | 24 kts | 90° |
| 2026-05-08 07:58 | 36.07827 | -115.13039 | 2079 ft | 27 kts | 90° |
| 2026-05-08 07:59 | 36.07828 | -115.12815 | 2070 ft | 22 kts | 90° |
| 2026-05-08 07:59 | 36.07828 | -115.12623 | 2062 ft | 24 kts | 90° |
| 2026-05-08 07:59 | 36.07828 | -115.12428 | 2056 ft | 20 kts | 90° |
| 2026-05-08 07:59 | 36.07825 | -115.12273 | 2053 ft | 17 kts | 105° |
| 2026-05-08 08:00 | 36.07758 | -115.12162 | 2049 ft | 11 kts | 129° |
| 2026-05-08 08:00 | 36.07739 | -115.12135 | 2048 ft | 0 kts | 137° |
| 2026-05-08 08:03 | 36.07709 | -115.12126 | 2048 ft | 10 kts | 177° |
| 2026-05-08 08:03 | 36.07643 | -115.12147 | 2048 ft | 10 kts | 247° |
| 2026-05-08 08:04 | 36.07643 | -115.12182 | 2049 ft | 1 kts | 270° |
| 2026-05-08 08:04 | 36.07643 | -115.12213 | 2050 ft | 21 kts | 270° |
| 2026-05-08 08:04 | 36.07642 | -115.12684 | 2066 ft | 85 kts | 270° |
| 2026-05-08 08:04 | 36.07642 | -115.13635 | 2092 ft | 134 kts | 270° |
| 2026-05-08 08:05 | 36.07639 | -115.14969 | 2108 ft | 174 kts | 271° |
| 2026-05-08 08:05 | 36.07655 | -115.16484 | 2639 ft | 176 kts | 268° |
| 2026-05-08 08:05 | 36.07652 | -115.18001 | 3304 ft | 176 kts | 269° |
| 2026-05-08 08:05 | 36.07644 | -115.19518 | 3901 ft | 177 kts | 269° |
| 2026-05-08 08:06 | 36.07588 | -115.21096 | 4097 ft | 192 kts | 260° |
| 2026-05-08 08:06 | 36.07330 | -115.22797 | 4229 ft | 210 kts | 260° |
| 2026-05-08 08:06 | 36.07026 | -115.24614 | 4386 ft | 228 kts | 251° |
| 2026-05-08 08:06 | 36.06028 | -115.26221 | 4600 ft | 252 kts | 214° |
| 2026-05-08 08:07 | 36.04378 | -115.27180 | 4919 ft | 270 kts | 204° |
| 2026-05-08 08:07 | 36.02590 | -115.28008 | 5489 ft | 277 kts | 201° |
| 2026-05-08 08:07 | 36.00679 | -115.28444 | 6122 ft | 285 kts | 181° |
| 2026-05-08 08:07 | 35.98706 | -115.28039 | 6708 ft | 291 kts | 160° |
| 2026-05-08 08:08 | 35.96923 | -115.26828 | 7306 ft | 295 kts | 140° |
| 2026-05-08 08:08 | 35.95370 | -115.25144 | 7930 ft | 298 kts | 137° |
| 2026-05-08 08:08 | 35.93813 | -115.23436 | 8563 ft | 302 kts | 137° |
| 2026-05-08 08:08 | 35.92237 | -115.21703 | 9226 ft | 304 kts | 135° |
| 2026-05-08 08:09 | 35.90880 | -115.19697 | 9871 ft | 305 kts | 120° |
| 2026-05-08 08:09 | 35.89782 | -115.17423 | 10292 ft | 316 kts | 118° |
| 2026-05-08 08:09 | 35.88626 | -115.15016 | 10415 ft | 337 kts | 118° |
| 2026-05-08 08:09 | 35.87591 | -115.12340 | 10531 ft | 354 kts | 108° |
| 2026-05-08 08:10 | 35.86973 | -115.09350 | 10809 ft | 364 kts | 96° |
| 2026-05-08 08:10 | 35.86851 | -115.06240 | 11284 ft | 365 kts | 85° |
| 2026-05-08 08:10 | 35.87029 | -115.03134 | 11816 ft | 368 kts | 84° |
| 2026-05-08 08:10 | 35.87210 | -114.99932 | 12320 ft | 370 kts | 84° |
| 2026-05-08 08:11 | 35.87380 | -114.96802 | 12888 ft | 373 kts | 84° |
| 2026-05-08 08:11 | 35.87552 | -114.93600 | 13478 ft | 375 kts | 84° |
| 2026-05-08 08:11 | 35.87721 | -114.90388 | 14025 ft | 377 kts | 84° |
| 2026-05-08 08:11 | 35.87893 | -114.87147 | 14521 ft | 380 kts | 84° |
| 2026-05-08 08:12 | 35.88070 | -114.83883 | 14995 ft | 383 kts | 84° |
| 2026-05-08 08:12 | 35.88249 | -114.80605 | 15462 ft | 385 kts | 84° |
| 2026-05-08 08:12 | 35.88428 | -114.77291 | 15930 ft | 388 kts | 84° |
| 2026-05-08 08:12 | 35.88606 | -114.73952 | 16387 ft | 391 kts | 84° |
| 2026-05-08 08:13 | 35.88782 | -114.70599 | 16855 ft | 394 kts | 84° |
| 2026-05-08 08:13 | 35.88958 | -114.67207 | 17323 ft | 397 kts | 84° |
| 2026-05-08 08:13 | 35.89134 | -114.63800 | 17766 ft | 401 kts | 84° |
| 2026-05-08 08:13 | 35.89313 | -114.60344 | 18210 ft | 404 kts | 84° |
| 2026-05-08 08:14 | 35.89491 | -114.56885 | 18609 ft | 406 kts | 84° |
| 2026-05-08 08:14 | 35.89670 | -114.53389 | 19029 ft | 409 kts | 84° |
| 2026-05-08 08:14 | 35.89788 | -114.49868 | 19459 ft | 411 kts | 86° |
| 2026-05-08 08:14 | 35.89810 | -114.46334 | 19880 ft | 414 kts | 88° |
| 2026-05-08 08:15 | 35.89772 | -114.42772 | 20293 ft | 416 kts | 89° |
| 2026-05-08 08:15 | 35.89711 | -114.39188 | 20703 ft | 419 kts | 89° |
| 2026-05-08 08:15 | 35.89651 | -114.35586 | 21111 ft | 421 kts | 89° |
| 2026-05-08 08:15 | 35.89604 | -114.31976 | 21488 ft | 424 kts | 88° |
| 2026-05-08 08:16 | 35.89570 | -114.28379 | 21867 ft | 426 kts | 88° |
| 2026-05-08 08:16 | 35.89545 | -114.24716 | 22266 ft | 428 kts | 88° |
| 2026-05-08 08:16 | 35.89524 | -114.21036 | 22651 ft | 430 kts | 88° |
| 2026-05-08 08:16 | 35.89506 | -114.17349 | 23045 ft | 432 kts | 88° |
| 2026-05-08 08:17 | 35.89486 | -114.13633 | 23385 ft | 434 kts | 88° |
| 2026-05-08 08:17 | 35.89462 | -114.09900 | 23702 ft | 436 kts | 88° |
| 2026-05-08 08:17 | 35.89433 | -114.06150 | 24010 ft | 438 kts | 88° |
| 2026-05-08 08:17 | 35.89400 | -114.02396 | 24298 ft | 440 kts | 88° |
| 2026-05-08 08:18 | 35.89365 | -113.98611 | 24599 ft | 442 kts | 88° |
| 2026-05-08 08:18 | 35.89329 | -113.94814 | 24871 ft | 443 kts | 88° |
| 2026-05-08 08:18 | 35.89293 | -113.91041 | 25147 ft | 445 kts | 88° |
| 2026-05-08 08:18 | 35.89255 | -113.87209 | 25441 ft | 447 kts | 88° |
| 2026-05-08 08:19 | 35.89218 | -113.83361 | 25732 ft | 449 kts | 88° |
| 2026-05-08 08:19 | 35.89179 | -113.79508 | 26023 ft | 451 kts | 88° |
| 2026-05-08 08:19 | 35.89138 | -113.75625 | 26316 ft | 453 kts | 88° |
| 2026-05-08 08:19 | 35.89095 | -113.71726 | 26750 ft | 454 kts | 88° |
| 2026-05-08 08:20 | 35.89048 | -113.67838 | 27208 ft | 453 kts | 88° |
| 2026-05-08 08:20 | 35.89001 | -113.64005 | 27582 ft | 452 kts | 88° |
| 2026-05-08 08:20 | 35.88953 | -113.60138 | 28011 ft | 451 kts | 88° |
| 2026-05-08 08:20 | 35.88905 | -113.56271 | 28413 ft | 450 kts | 88° |
| 2026-05-08 08:21 | 35.88726 | -113.52410 | 28805 ft | 452 kts | 95° |
| 2026-05-08 08:21 | 35.88204 | -113.48578 | 29222 ft | 453 kts | 97° |
| 2026-05-08 08:21 | 35.87656 | -113.44754 | 29620 ft | 452 kts | 97° |
| 2026-05-08 08:21 | 35.87109 | -113.40949 | 30027 ft | 451 kts | 97° |
| 2026-05-08 08:22 | 35.86559 | -113.37141 | 30389 ft | 450 kts | 97° |
| 2026-05-08 08:22 | 35.86009 | -113.33343 | 30772 ft | 449 kts | 97° |
| 2026-05-08 08:22 | 35.85461 | -113.29569 | 31141 ft | 448 kts | 97° |
| 2026-05-08 08:22 | 35.84910 | -113.25781 | 31504 ft | 446 kts | 97° |
| 2026-05-08 08:23 | 35.84371 | -113.22068 | 31883 ft | 445 kts | 96° |
| 2026-05-08 08:23 | 35.83826 | -113.18317 | 32249 ft | 443 kts | 96° |
| 2026-05-08 08:23 | 35.83283 | -113.14590 | 32619 ft | 442 kts | 96° |
| 2026-05-08 08:23 | 35.82738 | -113.10849 | 32993 ft | 441 kts | 96° |
| 2026-05-08 08:24 | 35.82195 | -113.07129 | 33376 ft | 440 kts | 96° |
| 2026-05-08 08:24 | 35.81651 | -113.03412 | 33723 ft | 440 kts | 96° |
| 2026-05-08 08:24 | 35.81109 | -112.99710 | 34037 ft | 439 kts | 96° |
| 2026-05-08 08:24 | 35.80568 | -112.96022 | 34329 ft | 438 kts | 96° |
| 2026-05-08 08:25 | 35.80027 | -112.92325 | 34585 ft | 438 kts | 96° |
| 2026-05-08 08:25 | 35.79483 | -112.88632 | 34832 ft | 438 kts | 96° |
| 2026-05-08 08:25 | 35.78939 | -112.84984 | 34943 ft | 439 kts | 96° |
| 2026-05-08 08:26 | 35.77821 | -112.77498 | 35004 ft | 450 kts | 96° |
| 2026-05-08 08:26 | 35.76675 | -112.69881 | 35008 ft | 453 kts | 96° |
| 2026-05-08 08:27 | 35.75531 | -112.62238 | 35001 ft | 453 kts | 96° |
| 2026-05-08 08:27 | 35.74394 | -112.54606 | 35024 ft | 453 kts | 96° |
| 2026-05-08 08:28 | 35.73246 | -112.46968 | 35026 ft | 454 kts | 96° |
| 2026-05-08 08:28 | 35.72097 | -112.39373 | 35043 ft | 454 kts | 96° |
| 2026-05-08 08:29 | 35.70934 | -112.31732 | 35048 ft | 455 kts | 96° |
| 2026-05-08 08:29 | 35.69763 | -112.24088 | 35046 ft | 455 kts | 96° |
| 2026-05-08 08:30 | 35.68583 | -112.16429 | 35043 ft | 455 kts | 96° |
| 2026-05-08 08:30 | 35.66819 | -112.04974 | 35051 ft | 456 kts | 96° |
| 2026-05-08 08:31 | 35.65628 | -111.97272 | 35048 ft | 456 kts | 96° |
| 2026-05-08 08:31 | 35.64431 | -111.89623 | 35037 ft | 456 kts | 96° |
| 2026-05-08 08:32 | 35.63318 | -111.82008 | 35047 ft | 452 kts | 90° |
| 2026-05-08 08:32 | 35.62982 | -111.74330 | 35033 ft | 450 kts | 88° |
| 2026-05-08 08:33 | 35.62660 | -111.66656 | 35035 ft | 450 kts | 88° |
| 2026-05-08 08:33 | 35.62326 | -111.58957 | 35035 ft | 450 kts | 88° |
| 2026-05-08 08:34 | 35.61996 | -111.51285 | 35019 ft | 450 kts | 88° |
| 2026-05-08 08:34 | 35.61662 | -111.43602 | 35017 ft | 450 kts | 88° |
| 2026-05-08 08:35 | 35.61317 | -111.35918 | 35006 ft | 450 kts | 88° |
| 2026-05-08 08:35 | 35.60971 | -111.28285 | 35008 ft | 450 kts | 88° |
| 2026-05-08 08:36 | 35.60622 | -111.20599 | 34990 ft | 450 kts | 88° |
| 2026-05-08 08:36 | 35.60261 | -111.12911 | 35007 ft | 450 kts | 88° |
| 2026-05-08 08:37 | 35.59954 | -111.06522 | 35003 ft | 450 kts | 88° |
| 2026-05-08 08:37 | 35.59591 | -110.98826 | 34991 ft | 451 kts | 88° |
| 2026-05-08 08:38 | 35.59227 | -110.91130 | 34986 ft | 451 kts | 89° |
| 2026-05-08 08:38 | 35.58855 | -110.83437 | 34984 ft | 450 kts | 89° |
| 2026-05-08 08:39 | 35.58478 | -110.75799 | 35002 ft | 450 kts | 89° |
| 2026-05-08 08:39 | 35.58087 | -110.68107 | 34992 ft | 451 kts | 89° |
| 2026-05-08 08:40 | 35.57696 | -110.60424 | 34984 ft | 451 kts | 89° |
| 2026-05-08 08:40 | 35.57297 | -110.52727 | 34984 ft | 451 kts | 89° |
| 2026-05-08 08:41 | 35.56900 | -110.45030 | 34992 ft | 451 kts | 89° |
| 2026-05-08 08:41 | 35.56493 | -110.37340 | 34985 ft | 452 kts | 89° |
| 2026-05-08 08:42 | 35.56087 | -110.29683 | 34984 ft | 452 kts | 89° |
| 2026-05-08 08:42 | 35.55672 | -110.21959 | 34983 ft | 452 kts | 89° |
| 2026-05-08 08:43 | 35.55253 | -110.14258 | 34982 ft | 452 kts | 89° |
| 2026-05-08 08:43 | 35.54823 | -110.06591 | 34991 ft | 453 kts | 89° |
| 2026-05-08 08:44 | 35.54387 | -109.98863 | 34988 ft | 453 kts | 89° |
| 2026-05-08 08:44 | 35.53952 | -109.91140 | 34990 ft | 454 kts | 89° |
| 2026-05-08 08:45 | 35.53516 | -109.83393 | 34995 ft | 453 kts | 89° |
| 2026-05-08 08:45 | 35.53075 | -109.75662 | 35005 ft | 454 kts | 89° |
| 2026-05-08 08:46 | 35.52628 | -109.67977 | 34997 ft | 454 kts | 89° |
| 2026-05-08 08:46 | 35.52162 | -109.60236 | 35001 ft | 454 kts | 89° |
| 2026-05-08 08:47 | 35.51695 | -109.52504 | 35002 ft | 455 kts | 89° |
| 2026-05-08 08:47 | 35.51229 | -109.44756 | 35030 ft | 455 kts | 89° |
| 2026-05-08 08:48 | 35.50757 | -109.37000 | 35062 ft | 455 kts | 89° |
| 2026-05-08 08:48 | 35.50282 | -109.29287 | 35096 ft | 456 kts | 89° |
| 2026-05-08 08:49 | 35.49798 | -109.21528 | 35126 ft | 456 kts | 89° |
| 2026-05-08 08:49 | 35.49307 | -109.13752 | 35151 ft | 457 kts | 89° |
| 2026-05-08 08:50 | 35.48813 | -109.05968 | 35152 ft | 458 kts | 89° |
| 2026-05-08 08:50 | 35.48316 | -108.98178 | 35140 ft | 459 kts | 89° |
| 2026-05-08 08:51 | 35.47803 | -108.90363 | 35186 ft | 459 kts | 90° |
| 2026-05-08 08:51 | 35.47096 | -108.82553 | 35204 ft | 461 kts | 94° |
| 2026-05-08 08:52 | 35.46010 | -108.74770 | 35008 ft | 462 kts | 96° |
| 2026-05-08 08:52 | 35.44840 | -108.67074 | 34994 ft | 462 kts | 96° |
| 2026-05-08 08:53 | 35.43727 | -108.59315 | 34988 ft | 462 kts | 95° |
| 2026-05-08 08:53 | 35.42664 | -108.51530 | 34992 ft | 463 kts | 95° |
| 2026-05-08 08:54 | 35.41605 | -108.43752 | 34993 ft | 463 kts | 95° |
| 2026-05-08 08:54 | 35.40519 | -108.35971 | 34998 ft | 464 kts | 96° |
| 2026-05-08 08:55 | 35.39412 | -108.28171 | 34991 ft | 464 kts | 96° |
| 2026-05-08 08:55 | 35.38298 | -108.20358 | 35019 ft | 465 kts | 96° |
| 2026-05-08 08:56 | 35.37197 | -108.12593 | 35060 ft | 465 kts | 96° |
| 2026-05-08 08:56 | 35.36080 | -108.04790 | 35099 ft | 465 kts | 96° |
| 2026-05-08 08:57 | 35.34956 | -107.96994 | 35140 ft | 464 kts | 96° |
| 2026-05-08 08:57 | 35.33841 | -107.89215 | 35160 ft | 463 kts | 96° |
| 2026-05-08 08:58 | 35.32720 | -107.81449 | 35157 ft | 462 kts | 96° |
| 2026-05-08 08:58 | 35.32156 | -107.77583 | 35002 ft | 462 kts | 96° |
| 2026-05-08 08:58 | 35.31590 | -107.73706 | 35011 ft | 462 kts | 96° |
| 2026-05-08 08:59 | 35.30451 | -107.65946 | 35002 ft | 463 kts | 96° |
| 2026-05-08 08:59 | 35.29312 | -107.58224 | 34993 ft | 464 kts | 96° |
| 2026-05-08 09:00 | 35.28163 | -107.50452 | 34994 ft | 464 kts | 96° |
| 2026-05-08 09:00 | 35.27013 | -107.42666 | 34982 ft | 464 kts | 96° |
| 2026-05-08 09:01 | 35.25861 | -107.34890 | 34993 ft | 465 kts | 97° |
| 2026-05-08 09:01 | 35.24692 | -107.27081 | 34980 ft | 466 kts | 97° |
| 2026-05-08 09:02 | 35.23517 | -107.19290 | 34984 ft | 464 kts | 97° |
| 2026-05-08 09:02 | 35.22348 | -107.11590 | 34976 ft | 463 kts | 97° |
| 2026-05-08 09:03 | 35.21176 | -107.03845 | 34983 ft | 462 kts | 97° |
| 2026-05-08 09:03 | 35.20000 | -106.96119 | 34976 ft | 462 kts | 97° |
| 2026-05-08 09:04 | 35.18822 | -106.88387 | 34971 ft | 463 kts | 97° |
| 2026-05-08 09:04 | 35.17634 | -106.80654 | 34964 ft | 463 kts | 97° |
| 2026-05-08 09:05 | 35.16439 | -106.72906 | 34961 ft | 463 kts | 97° |
| 2026-05-08 09:05 | 35.15238 | -106.65169 | 35136 ft | 464 kts | 98° |
| 2026-05-08 09:06 | 35.14034 | -106.57467 | 35117 ft | 464 kts | 98° |
| 2026-05-08 09:06 | 35.12814 | -106.49708 | 35106 ft | 465 kts | 98° |
| 2026-05-08 09:07 | 35.11595 | -106.41957 | 35083 ft | 465 kts | 98° |
| 2026-05-08 09:07 | 35.10376 | -106.34202 | 35064 ft | 464 kts | 98° |
| 2026-05-08 09:08 | 35.09151 | -106.26471 | 35026 ft | 464 kts | 98° |
| 2026-05-08 09:08 | 35.07931 | -106.18783 | 34996 ft | 464 kts | 98° |
| 2026-05-08 09:09 | 35.06695 | -106.11061 | 34985 ft | 464 kts | 98° |
| 2026-05-08 09:09 | 35.05446 | -106.03327 | 34994 ft | 464 kts | 98° |
| 2026-05-08 09:10 | 35.04201 | -105.95610 | 34999 ft | 464 kts | 99° |
| 2026-05-08 09:10 | 35.02949 | -105.87871 | 34996 ft | 465 kts | 99° |
| 2026-05-08 09:11 | 35.01696 | -105.80136 | 34992 ft | 465 kts | 99° |
| 2026-05-08 09:11 | 35.00432 | -105.72424 | 34999 ft | 465 kts | 99° |
| 2026-05-08 09:12 | 34.99160 | -105.64673 | 34995 ft | 465 kts | 99° |
| 2026-05-08 09:12 | 34.97883 | -105.56934 | 34984 ft | 466 kts | 99° |
| 2026-05-08 09:13 | 34.96603 | -105.49174 | 34952 ft | 466 kts | 99° |
| 2026-05-08 09:13 | 34.95319 | -105.41426 | 34956 ft | 467 kts | 99° |
| 2026-05-08 09:14 | 34.94018 | -105.33649 | 34937 ft | 467 kts | 99° |
| 2026-05-08 09:14 | 34.92712 | -105.25866 | 34942 ft | 468 kts | 100° |
| 2026-05-08 09:15 | 34.91415 | -105.18133 | 34928 ft | 468 kts | 100° |
| 2026-05-08 09:15 | 34.90098 | -105.10368 | 34936 ft | 468 kts | 100° |
| 2026-05-08 09:16 | 34.88780 | -105.02585 | 34928 ft | 468 kts | 100° |
| 2026-05-08 09:16 | 34.87470 | -104.94849 | 34975 ft | 468 kts | 100° |
| 2026-05-08 09:17 | 34.86144 | -104.87073 | 35001 ft | 469 kts | 101° |
| 2026-05-08 09:17 | 34.84803 | -104.79294 | 35021 ft | 469 kts | 101° |
| 2026-05-08 09:18 | 34.83467 | -104.71520 | 35041 ft | 469 kts | 101° |
| 2026-05-08 09:18 | 34.82135 | -104.63809 | 35049 ft | 468 kts | 101° |
| 2026-05-08 09:19 | 34.80788 | -104.56069 | 35036 ft | 467 kts | 101° |
| 2026-05-08 09:19 | 34.79437 | -104.48331 | 35005 ft | 467 kts | 101° |
| 2026-05-08 09:20 | 34.78084 | -104.40597 | 34981 ft | 467 kts | 101° |